sensor_id;sensor_type;location;lat;lon;timestamp;temperature;humidity
306;DHT22;137;48.578;9.180;2023-09-18T00:02:13;20.40;98.20
306;DHT22;137;48.578;9.180;2023-09-18T00:04:40;20.50;98.20
306;DHT22;137;48.578;9.180;2023-09-18T00:07:07;20.60;98.20
306;DHT22;137;48.578;9.180;2023-09-18T00:09:33;20.50;98.20
306;DHT22;137;48.578;9.180;2023-09-18T00:12:00;20.50;98.20
306;DHT22;137;48.578;9.180;2023-09-18T00:14:28;20.40;98.20
306;DHT22;137;48.578;9.180;2023-09-18T00:16:55;20.30;98.20
306;DHT22;137;48.578;9.180;2023-09-18T00:19:22;20.20;98.20
306;DHT22;137;48.578;9.180;2023-09-18T00:21:49;20.20;98.20
306;DHT22;137;48.578;9.180;2023-09-18T00:24:17;20.20;98.20
306;DHT22;137;48.578;9.180;2023-09-18T00:26:44;20.20;98.20
306;DHT22;137;48.578;9.180;2023-09-18T00:29:12;20.20;98.20
306;DHT22;137;48.578;9.180;2023-09-18T00:31:40;20.10;98.20
306;DHT22;137;48.578;9.180;2023-09-18T00:34:07;20.10;98.20
306;DHT22;137;48.578;9.180;2023-09-18T00:36:33;20.10;98.20
306;DHT22;137;48.578;9.180;2023-09-18T00:39:00;20.10;98.20
306;DHT22;137;48.578;9.180;2023-09-18T00:41:27;20.10;98.20
306;DHT22;137;48.578;9.180;2023-09-18T00:43:54;20.10;98.20
306;DHT22;137;48.578;9.180;2023-09-18T00:46:21;20.10;98.20
306;DHT22;137;48.578;9.180;2023-09-18T00:48:49;20.10;98.20
306;DHT22;137;48.578;9.180;2023-09-18T00:51:17;20.00;98.20
306;DHT22;137;48.578;9.180;2023-09-18T00:53:45;20.00;98.20
306;DHT22;137;48.578;9.180;2023-09-18T00:56:14;20.00;98.20
306;DHT22;137;48.578;9.180;2023-09-18T00:58:41;20.10;98.20
306;DHT22;137;48.578;9.180;2023-09-18T01:01:10;20.00;98.20
306;DHT22;137;48.578;9.180;2023-09-18T01:03:37;20.00;98.20
306;DHT22;137;48.578;9.180;2023-09-18T01:06:05;20.10;98.20
306;DHT22;137;48.578;9.180;2023-09-18T01:08:32;20.10;98.20
306;DHT22;137;48.578;9.180;2023-09-18T01:11:04;20.10;98.20
306;DHT22;137;48.578;9.180;2023-09-18T01:13:37;20.10;98.20
306;DHT22;137;48.578;9.180;2023-09-18T01:16:10;20.10;98.20
306;DHT22;137;48.578;9.180;2023-09-18T01:18:48;20.00;98.20
306;DHT22;137;48.578;9.180;2023-09-18T01:21:18;20.00;98.20
306;DHT22;137;48.578;9.180;2023-09-18T01:23:46;19.90;98.20
306;DHT22;137;48.578;9.180;2023-09-18T01:26:14;19.80;98.20
306;DHT22;137;48.578;9.180;2023-09-18T01:28:41;19.70;98.20
306;DHT22;137;48.578;9.180;2023-09-18T01:31:08;19.70;98.20
306;DHT22;137;48.578;9.180;2023-09-18T01:33:34;19.60;98.20
306;DHT22;137;48.578;9.180;2023-09-18T01:36:04;19.50;98.20
306;DHT22;137;48.578;9.180;2023-09-18T01:38:33;19.40;98.20
306;DHT22;137;48.578;9.180;2023-09-18T01:41:01;19.40;98.20
306;DHT22;137;48.578;9.180;2023-09-18T01:43:28;19.50;98.20
306;DHT22;137;48.578;9.180;2023-09-18T01:45:56;19.40;98.20
306;DHT22;137;48.578;9.180;2023-09-18T01:48:22;19.40;98.20
306;DHT22;137;48.578;9.180;2023-09-18T01:50:49;19.40;98.20
306;DHT22;137;48.578;9.180;2023-09-18T01:53:16;19.50;98.20
306;DHT22;137;48.578;9.180;2023-09-18T01:55:42;19.60;98.20
306;DHT22;137;48.578;9.180;2023-09-18T01:58:11;19.60;98.20
306;DHT22;137;48.578;9.180;2023-09-18T02:00:39;19.70;98.20
306;DHT22;137;48.578;9.180;2023-09-18T02:03:06;19.70;98.20
306;DHT22;137;48.578;9.180;2023-09-18T02:05:33;19.70;98.20
306;DHT22;137;48.578;9.180;2023-09-18T02:08:00;19.70;98.20
306;DHT22;137;48.578;9.180;2023-09-18T02:10:28;19.80;98.20
306;DHT22;137;48.578;9.180;2023-09-18T02:12:55;19.70;98.20
306;DHT22;137;48.578;9.180;2023-09-18T02:15:23;19.70;98.20
306;DHT22;137;48.578;9.180;2023-09-18T02:17:49;19.80;98.20
306;DHT22;137;48.578;9.180;2023-09-18T02:20:16;19.80;98.20
306;DHT22;137;48.578;9.180;2023-09-18T02:22:43;19.70;98.20
306;DHT22;137;48.578;9.180;2023-09-18T02:25:12;19.70;98.20
306;DHT22;137;48.578;9.180;2023-09-18T02:27:39;19.70;98.20
306;DHT22;137;48.578;9.180;2023-09-18T02:30:07;19.70;98.20
306;DHT22;137;48.578;9.180;2023-09-18T02:32:36;19.70;98.20
306;DHT22;137;48.578;9.180;2023-09-18T02:35:04;19.60;98.20
306;DHT22;137;48.578;9.180;2023-09-18T02:37:32;19.50;98.20
306;DHT22;137;48.578;9.180;2023-09-18T02:39:59;19.50;98.20
306;DHT22;137;48.578;9.180;2023-09-18T02:42:25;19.40;98.20
306;DHT22;137;48.578;9.180;2023-09-18T02:44:52;19.40;98.20
306;DHT22;137;48.578;9.180;2023-09-18T02:47:19;19.30;98.20
306;DHT22;137;48.578;9.180;2023-09-18T02:49:47;19.20;98.20
306;DHT22;137;48.578;9.180;2023-09-18T02:52:14;19.10;98.20
306;DHT22;137;48.578;9.180;2023-09-18T02:54:40;18.70;98.20
306;DHT22;137;48.578;9.180;2023-09-18T02:57:07;18.50;98.20
306;DHT22;137;48.578;9.180;2023-09-18T02:59:34;18.40;98.20
306;DHT22;137;48.578;9.180;2023-09-18T03:02:00;18.20;98.20
306;DHT22;137;48.578;9.180;2023-09-18T03:04:29;18.20;98.20
306;DHT22;137;48.578;9.180;2023-09-18T03:06:57;18.20;98.20
306;DHT22;137;48.578;9.180;2023-09-18T03:09:24;18.20;98.20
306;DHT22;137;48.578;9.180;2023-09-18T03:11:50;18.20;98.20
306;DHT22;137;48.578;9.180;2023-09-18T03:14:17;18.20;98.20
306;DHT22;137;48.578;9.180;2023-09-18T03:16:44;18.20;98.20
306;DHT22;137;48.578;9.180;2023-09-18T03:19:10;18.20;98.20
306;DHT22;137;48.578;9.180;2023-09-18T03:21:38;18.20;98.20
306;DHT22;137;48.578;9.180;2023-09-18T03:24:06;18.20;98.20
306;DHT22;137;48.578;9.180;2023-09-18T03:26:33;18.20;98.20
306;DHT22;137;48.578;9.180;2023-09-18T03:29:00;18.10;98.20
306;DHT22;137;48.578;9.180;2023-09-18T03:31:27;18.10;98.20
306;DHT22;137;48.578;9.180;2023-09-18T03:33:52;18.10;98.20
306;DHT22;137;48.578;9.180;2023-09-18T03:36:21;18.10;98.20
306;DHT22;137;48.578;9.180;2023-09-18T03:38:48;18.00;98.20
306;DHT22;137;48.578;9.180;2023-09-18T03:41:16;18.00;98.20
306;DHT22;137;48.578;9.180;2023-09-18T03:43:43;17.90;98.20
306;DHT22;137;48.578;9.180;2023-09-18T03:46:10;18.00;98.20
306;DHT22;137;48.578;9.180;2023-09-18T03:48:37;18.00;98.20
306;DHT22;137;48.578;9.180;2023-09-18T03:51:04;18.00;98.20
306;DHT22;137;48.578;9.180;2023-09-18T03:53:31;17.90;98.20
306;DHT22;137;48.578;9.180;2023-09-18T03:55:58;17.80;98.20
306;DHT22;137;48.578;9.180;2023-09-18T03:58:26;17.80;98.20
306;DHT22;137;48.578;9.180;2023-09-18T04:00:53;17.90;98.20
306;DHT22;137;48.578;9.180;2023-09-18T04:03:20;17.90;98.20
306;DHT22;137;48.578;9.180;2023-09-18T04:05:46;18.00;98.20
306;DHT22;137;48.578;9.180;2023-09-18T04:08:13;18.10;98.20
306;DHT22;137;48.578;9.180;2023-09-18T04:10:40;18.20;98.20
306;DHT22;137;48.578;9.180;2023-09-18T04:13:07;18.30;98.20
306;DHT22;137;48.578;9.180;2023-09-18T04:15:35;18.30;98.20
306;DHT22;137;48.578;9.180;2023-09-18T04:18:03;18.40;98.20
306;DHT22;137;48.578;9.180;2023-09-18T04:20:30;18.40;98.20
306;DHT22;137;48.578;9.180;2023-09-18T04:23:20;18.40;98.20
306;DHT22;137;48.578;9.180;2023-09-18T04:25:47;18.50;98.20
306;DHT22;137;48.578;9.180;2023-09-18T04:28:14;18.50;98.20
306;DHT22;137;48.578;9.180;2023-09-18T04:30:42;18.40;98.20
306;DHT22;137;48.578;9.180;2023-09-18T04:33:09;18.40;98.20
306;DHT22;137;48.578;9.180;2023-09-18T04:35:37;18.40;98.20
306;DHT22;137;48.578;9.180;2023-09-18T04:38:05;18.30;98.20
306;DHT22;137;48.578;9.180;2023-09-18T04:40:33;18.30;98.20
306;DHT22;137;48.578;9.180;2023-09-18T04:43:00;18.30;98.20
306;DHT22;137;48.578;9.180;2023-09-18T04:45:27;18.30;98.20
306;DHT22;137;48.578;9.180;2023-09-18T04:47:55;18.30;98.20
306;DHT22;137;48.578;9.180;2023-09-18T04:50:22;18.30;98.20
306;DHT22;137;48.578;9.180;2023-09-18T04:52:52;18.20;98.20
306;DHT22;137;48.578;9.180;2023-09-18T04:55:20;18.20;98.20
306;DHT22;137;48.578;9.180;2023-09-18T04:57:46;18.20;98.20
306;DHT22;137;48.578;9.180;2023-09-18T05:00:14;18.20;98.20
306;DHT22;137;48.578;9.180;2023-09-18T05:02:42;18.20;98.20
306;DHT22;137;48.578;9.180;2023-09-18T05:05:10;18.20;98.20
306;DHT22;137;48.578;9.180;2023-09-18T05:07:37;18.20;98.20
306;DHT22;137;48.578;9.180;2023-09-18T05:10:04;18.20;98.20
306;DHT22;137;48.578;9.180;2023-09-18T05:12:31;18.20;98.20
306;DHT22;137;48.578;9.180;2023-09-18T05:14:58;18.30;98.20
306;DHT22;137;48.578;9.180;2023-09-18T05:17:40;18.30;98.20
306;DHT22;137;48.578;9.180;2023-09-18T05:20:10;18.30;98.20
306;DHT22;137;48.578;9.180;2023-09-18T05:22:39;18.40;98.20
306;DHT22;137;48.578;9.180;2023-09-18T05:25:08;18.50;98.20
306;DHT22;137;48.578;9.180;2023-09-18T05:27:35;18.50;98.20
306;DHT22;137;48.578;9.180;2023-09-18T05:30:10;18.50;98.20
306;DHT22;137;48.578;9.180;2023-09-18T05:32:37;18.50;98.20
306;DHT22;137;48.578;9.180;2023-09-18T05:35:05;18.50;98.20
306;DHT22;137;48.578;9.180;2023-09-18T05:37:33;18.60;98.20
306;DHT22;137;48.578;9.180;2023-09-18T05:40:00;18.60;98.20
306;DHT22;137;48.578;9.180;2023-09-18T05:42:26;18.70;98.20
306;DHT22;137;48.578;9.180;2023-09-18T05:44:53;18.70;98.20
306;DHT22;137;48.578;9.180;2023-09-18T05:47:21;18.70;98.20
306;DHT22;137;48.578;9.180;2023-09-18T05:49:52;18.80;98.20
306;DHT22;137;48.578;9.180;2023-09-18T05:52:19;18.90;98.20
306;DHT22;137;48.578;9.180;2023-09-18T05:54:49;19.00;98.20
306;DHT22;137;48.578;9.180;2023-09-18T05:57:15;19.10;98.20
306;DHT22;137;48.578;9.180;2023-09-18T05:59:42;19.10;98.20
306;DHT22;137;48.578;9.180;2023-09-18T06:02:10;19.10;98.20
306;DHT22;137;48.578;9.180;2023-09-18T06:04:37;19.20;98.20
306;DHT22;137;48.578;9.180;2023-09-18T06:07:04;19.20;98.20
306;DHT22;137;48.578;9.180;2023-09-18T06:09:31;19.30;98.20
306;DHT22;137;48.578;9.180;2023-09-18T06:12:00;19.30;98.20
306;DHT22;137;48.578;9.180;2023-09-18T06:14:26;19.40;98.20
306;DHT22;137;48.578;9.180;2023-09-18T06:16:53;19.40;98.20
306;DHT22;137;48.578;9.180;2023-09-18T06:19:20;19.50;98.20
306;DHT22;137;48.578;9.180;2023-09-18T06:21:47;19.60;98.20
306;DHT22;137;48.578;9.180;2023-09-18T06:24:13;19.60;98.20
306;DHT22;137;48.578;9.180;2023-09-18T06:26:40;19.60;98.20
306;DHT22;137;48.578;9.180;2023-09-18T06:29:08;19.60;98.20
306;DHT22;137;48.578;9.180;2023-09-18T06:31:35;19.70;98.20
306;DHT22;137;48.578;9.180;2023-09-18T06:34:02;19.70;98.20
306;DHT22;137;48.578;9.180;2023-09-18T06:36:29;19.60;98.20
306;DHT22;137;48.578;9.180;2023-09-18T06:38:55;19.60;98.20
306;DHT22;137;48.578;9.180;2023-09-18T06:41:22;19.60;98.20
306;DHT22;137;48.578;9.180;2023-09-18T06:43:49;19.60;98.20
306;DHT22;137;48.578;9.180;2023-09-18T06:46:17;19.60;98.20
306;DHT22;137;48.578;9.180;2023-09-18T06:48:44;19.50;98.20
306;DHT22;137;48.578;9.180;2023-09-18T06:51:14;19.60;98.20
306;DHT22;137;48.578;9.180;2023-09-18T06:53:42;19.60;98.20
306;DHT22;137;48.578;9.180;2023-09-18T06:56:09;19.60;98.20
306;DHT22;137;48.578;9.180;2023-09-18T06:58:38;19.70;98.20
306;DHT22;137;48.578;9.180;2023-09-18T07:01:04;19.70;98.20
306;DHT22;137;48.578;9.180;2023-09-18T07:03:33;19.70;98.20
306;DHT22;137;48.578;9.180;2023-09-18T07:06:01;19.70;98.20
306;DHT22;137;48.578;9.180;2023-09-18T07:08:29;19.80;98.20
306;DHT22;137;48.578;9.180;2023-09-18T07:10:56;19.80;98.20
306;DHT22;137;48.578;9.180;2023-09-18T07:13:23;19.90;98.20
306;DHT22;137;48.578;9.180;2023-09-18T07:15:50;20.00;98.20
306;DHT22;137;48.578;9.180;2023-09-18T07:18:16;20.10;98.20
306;DHT22;137;48.578;9.180;2023-09-18T07:20:45;20.20;98.20
306;DHT22;137;48.578;9.180;2023-09-18T07:23:11;20.30;98.20
306;DHT22;137;48.578;9.180;2023-09-18T07:25:38;20.40;98.20
306;DHT22;137;48.578;9.180;2023-09-18T07:28:06;20.40;98.20
306;DHT22;137;48.578;9.180;2023-09-18T07:30:34;20.40;98.20
306;DHT22;137;48.578;9.180;2023-09-18T07:33:03;20.40;98.20
306;DHT22;137;48.578;9.180;2023-09-18T07:35:30;20.40;98.20
306;DHT22;137;48.578;9.180;2023-09-18T07:37:58;20.40;98.20
306;DHT22;137;48.578;9.180;2023-09-18T07:40:25;20.40;98.20
306;DHT22;137;48.578;9.180;2023-09-18T07:42:52;20.40;98.20
306;DHT22;137;48.578;9.180;2023-09-18T07:45:19;20.40;98.20
306;DHT22;137;48.578;9.180;2023-09-18T07:47:46;20.50;98.20
306;DHT22;137;48.578;9.180;2023-09-18T07:50:12;20.60;98.20
306;DHT22;137;48.578;9.180;2023-09-18T07:52:39;20.70;98.20
306;DHT22;137;48.578;9.180;2023-09-18T07:55:08;21.00;98.20
306;DHT22;137;48.578;9.180;2023-09-18T07:57:35;21.10;98.20
306;DHT22;137;48.578;9.180;2023-09-18T08:00:03;21.10;98.20
306;DHT22;137;48.578;9.180;2023-09-18T08:02:33;21.10;98.20
306;DHT22;137;48.578;9.180;2023-09-18T08:05:00;21.20;98.20
306;DHT22;137;48.578;9.180;2023-09-18T08:07:27;21.40;98.20
306;DHT22;137;48.578;9.180;2023-09-18T08:09:54;21.50;98.20
306;DHT22;137;48.578;9.180;2023-09-18T08:12:23;21.60;98.20
306;DHT22;137;48.578;9.180;2023-09-18T08:14:50;21.50;98.20
306;DHT22;137;48.578;9.180;2023-09-18T08:17:16;21.40;98.20
306;DHT22;137;48.578;9.180;2023-09-18T08:19:43;21.30;98.20
306;DHT22;137;48.578;9.180;2023-09-18T08:22:10;21.30;98.20
306;DHT22;137;48.578;9.180;2023-09-18T08:24:40;21.30;98.20
306;DHT22;137;48.578;9.180;2023-09-18T08:27:07;21.20;98.20
306;DHT22;137;48.578;9.180;2023-09-18T08:29:35;21.00;98.20
306;DHT22;137;48.578;9.180;2023-09-18T08:32:02;20.70;98.20
306;DHT22;137;48.578;9.180;2023-09-18T08:34:29;20.40;98.20
306;DHT22;137;48.578;9.180;2023-09-18T08:36:55;20.10;98.20
306;DHT22;137;48.578;9.180;2023-09-18T08:39:22;19.70;98.20
306;DHT22;137;48.578;9.180;2023-09-18T08:41:51;19.50;98.20
306;DHT22;137;48.578;9.180;2023-09-18T08:44:23;19.30;98.20
306;DHT22;137;48.578;9.180;2023-09-18T08:46:53;19.10;98.20
306;DHT22;137;48.578;9.180;2023-09-18T08:49:22;19.10;98.20
306;DHT22;137;48.578;9.180;2023-09-18T08:51:49;19.10;98.20
306;DHT22;137;48.578;9.180;2023-09-18T08:54:16;19.10;98.20
306;DHT22;137;48.578;9.180;2023-09-18T08:56:43;19.10;98.20
306;DHT22;137;48.578;9.180;2023-09-18T08:59:12;19.00;98.20
306;DHT22;137;48.578;9.180;2023-09-18T09:01:39;18.90;98.20
306;DHT22;137;48.578;9.180;2023-09-18T09:04:07;18.90;98.20
306;DHT22;137;48.578;9.180;2023-09-18T09:06:34;18.90;98.20
306;DHT22;137;48.578;9.180;2023-09-18T09:09:03;18.90;98.20
306;DHT22;137;48.578;9.180;2023-09-18T09:11:30;19.00;98.20
306;DHT22;137;48.578;9.180;2023-09-18T09:14:10;19.20;98.20
306;DHT22;137;48.578;9.180;2023-09-18T09:16:44;19.30;98.20
306;DHT22;137;48.578;9.180;2023-09-18T09:19:15;19.40;98.20
306;DHT22;137;48.578;9.180;2023-09-18T09:21:42;19.40;98.20
306;DHT22;137;48.578;9.180;2023-09-18T09:24:10;19.50;98.20
306;DHT22;137;48.578;9.180;2023-09-18T09:26:39;19.60;98.20
306;DHT22;137;48.578;9.180;2023-09-18T09:29:15;19.70;98.20
306;DHT22;137;48.578;9.180;2023-09-18T09:31:43;19.70;98.20
306;DHT22;137;48.578;9.180;2023-09-18T09:34:10;19.80;98.20
306;DHT22;137;48.578;9.180;2023-09-18T09:36:51;19.80;98.20
306;DHT22;137;48.578;9.180;2023-09-18T09:39:19;19.70;98.20
306;DHT22;137;48.578;9.180;2023-09-18T09:41:47;19.70;98.20
306;DHT22;137;48.578;9.180;2023-09-18T09:44:15;19.80;98.20
306;DHT22;137;48.578;9.180;2023-09-18T09:46:45;19.70;98.20
306;DHT22;137;48.578;9.180;2023-09-18T09:49:12;19.60;98.20
306;DHT22;137;48.578;9.180;2023-09-18T09:51:42;19.70;98.20
306;DHT22;137;48.578;9.180;2023-09-18T09:54:09;19.80;98.20
306;DHT22;137;48.578;9.180;2023-09-18T09:56:44;20.00;98.20
306;DHT22;137;48.578;9.180;2023-09-18T09:59:11;20.10;98.20
306;DHT22;137;48.578;9.180;2023-09-18T10:01:39;20.30;98.20
306;DHT22;137;48.578;9.180;2023-09-18T10:04:09;20.40;98.20
306;DHT22;137;48.578;9.180;2023-09-18T10:06:37;20.50;98.20
306;DHT22;137;48.578;9.180;2023-09-18T10:09:06;20.50;98.20
306;DHT22;137;48.578;9.180;2023-09-18T10:11:39;20.60;98.20
306;DHT22;137;48.578;9.180;2023-09-18T10:14:12;20.50;98.20
306;DHT22;137;48.578;9.180;2023-09-18T10:16:40;20.40;98.20
306;DHT22;137;48.578;9.180;2023-09-18T10:19:14;20.30;98.20
306;DHT22;137;48.578;9.180;2023-09-18T10:21:52;20.20;98.20
306;DHT22;137;48.578;9.180;2023-09-18T10:24:24;20.10;98.20
306;DHT22;137;48.578;9.180;2023-09-18T10:26:55;19.90;98.20
306;DHT22;137;48.578;9.180;2023-09-18T10:29:23;19.80;98.20
306;DHT22;137;48.578;9.180;2023-09-18T10:31:50;19.70;98.20
306;DHT22;137;48.578;9.180;2023-09-18T10:34:17;19.70;98.20
306;DHT22;137;48.578;9.180;2023-09-18T10:36:46;19.70;98.20
306;DHT22;137;48.578;9.180;2023-09-18T10:39:13;19.70;98.20
306;DHT22;137;48.578;9.180;2023-09-18T10:41:47;19.60;98.20
306;DHT22;137;48.578;9.180;2023-09-18T10:44:14;19.70;98.20
306;DHT22;137;48.578;9.180;2023-09-18T10:46:42;19.60;98.20
306;DHT22;137;48.578;9.180;2023-09-18T10:49:08;19.60;98.20
306;DHT22;137;48.578;9.180;2023-09-18T10:51:37;19.60;98.20
306;DHT22;137;48.578;9.180;2023-09-18T10:54:07;19.70;98.20
306;DHT22;137;48.578;9.180;2023-09-18T10:56:34;19.70;98.20
306;DHT22;137;48.578;9.180;2023-09-18T10:59:06;19.70;98.20
306;DHT22;137;48.578;9.180;2023-09-18T11:01:34;19.70;98.20
306;DHT22;137;48.578;9.180;2023-09-18T11:04:04;19.70;98.20
306;DHT22;137;48.578;9.180;2023-09-18T11:07:02;19.80;98.20
306;DHT22;137;48.578;9.180;2023-09-18T11:09:31;19.80;98.20
306;DHT22;137;48.578;9.180;2023-09-18T11:12:03;19.80;98.20
306;DHT22;137;48.578;9.180;2023-09-18T11:14:45;19.80;98.20
306;DHT22;137;48.578;9.180;2023-09-18T11:17:33;19.90;98.20
306;DHT22;137;48.578;9.180;2023-09-18T11:20:05;19.90;98.20
306;DHT22;137;48.578;9.180;2023-09-18T11:22:34;19.90;98.20
306;DHT22;137;48.578;9.180;2023-09-18T11:25:30;20.00;98.20
306;DHT22;137;48.578;9.180;2023-09-18T11:28:00;20.10;98.20
306;DHT22;137;48.578;9.180;2023-09-18T11:30:29;20.10;98.20
306;DHT22;137;48.578;9.180;2023-09-18T11:32:55;20.20;98.20
306;DHT22;137;48.578;9.180;2023-09-18T11:35:22;20.20;98.20
306;DHT22;137;48.578;9.180;2023-09-18T11:38:03;20.20;98.20
306;DHT22;137;48.578;9.180;2023-09-18T11:40:32;20.20;98.20
306;DHT22;137;48.578;9.180;2023-09-18T11:43:24;20.20;98.20
306;DHT22;137;48.578;9.180;2023-09-18T11:45:58;20.10;98.20
306;DHT22;137;48.578;9.180;2023-09-18T11:48:27;20.20;98.20
306;DHT22;137;48.578;9.180;2023-09-18T11:50:56;20.10;98.20
306;DHT22;137;48.578;9.180;2023-09-18T11:53:24;20.00;98.20
306;DHT22;137;48.578;9.180;2023-09-18T11:55:51;20.00;98.20
306;DHT22;137;48.578;9.180;2023-09-18T11:58:18;20.10;98.20
306;DHT22;137;48.578;9.180;2023-09-18T12:00:48;20.10;98.20
306;DHT22;137;48.578;9.180;2023-09-18T12:03:18;20.10;98.20
306;DHT22;137;48.578;9.180;2023-09-18T12:05:53;20.10;98.20
306;DHT22;137;48.578;9.180;2023-09-18T12:08:21;20.20;98.20
306;DHT22;137;48.578;9.180;2023-09-18T12:10:49;20.20;98.20
306;DHT22;137;48.578;9.180;2023-09-18T12:13:16;20.20;98.20
306;DHT22;137;48.578;9.180;2023-09-18T12:15:43;20.20;98.20
306;DHT22;137;48.578;9.180;2023-09-18T12:18:10;20.20;98.20
306;DHT22;137;48.578;9.180;2023-09-18T12:20:44;20.20;98.20
306;DHT22;137;48.578;9.180;2023-09-18T12:23:11;20.30;98.20
306;DHT22;137;48.578;9.180;2023-09-18T12:25:38;20.40;98.20
306;DHT22;137;48.578;9.180;2023-09-18T12:28:06;20.50;98.20
306;DHT22;137;48.578;9.180;2023-09-18T12:30:34;20.60;98.20
306;DHT22;137;48.578;9.180;2023-09-18T12:33:01;20.80;98.20
306;DHT22;137;48.578;9.180;2023-09-18T12:35:29;21.10;98.20
306;DHT22;137;48.578;9.180;2023-09-18T12:37:58;21.40;98.20
306;DHT22;137;48.578;9.180;2023-09-18T12:40:26;21.70;98.20
306;DHT22;137;48.578;9.180;2023-09-18T12:42:54;21.70;98.20
306;DHT22;137;48.578;9.180;2023-09-18T12:45:21;21.80;98.20
306;DHT22;137;48.578;9.180;2023-09-18T12:47:48;22.00;98.20
306;DHT22;137;48.578;9.180;2023-09-18T12:50:15;22.20;98.20
306;DHT22;137;48.578;9.180;2023-09-18T12:52:42;22.30;98.20
306;DHT22;137;48.578;9.180;2023-09-18T12:57:56;22.80;98.20
306;DHT22;137;48.578;9.180;2023-09-18T13:00:24;23.10;98.20
306;DHT22;137;48.578;9.180;2023-09-18T13:02:52;23.50;98.20
306;DHT22;137;48.578;9.180;2023-09-18T13:05:21;23.40;98.20
306;DHT22;137;48.578;9.180;2023-09-18T13:07:52;23.50;98.20
306;DHT22;137;48.578;9.180;2023-09-18T13:10:20;23.40;98.20
306;DHT22;137;48.578;9.180;2023-09-18T13:12:48;23.40;98.20
306;DHT22;137;48.578;9.180;2023-09-18T13:15:25;23.40;98.20
306;DHT22;137;48.578;9.180;2023-09-18T13:17:53;23.40;98.20
306;DHT22;137;48.578;9.180;2023-09-18T13:20:21;23.30;98.20
306;DHT22;137;48.578;9.180;2023-09-18T13:22:50;23.30;98.20
306;DHT22;137;48.578;9.180;2023-09-18T13:25:22;23.50;98.20
306;DHT22;137;48.578;9.180;2023-09-18T13:27:50;23.60;98.20
306;DHT22;137;48.578;9.180;2023-09-18T13:30:18;24.00;98.20
306;DHT22;137;48.578;9.180;2023-09-18T13:32:47;24.50;98.20
306;DHT22;137;48.578;9.180;2023-09-18T13:35:14;24.60;98.20
306;DHT22;137;48.578;9.180;2023-09-18T13:37:41;24.50;98.20
306;DHT22;137;48.578;9.180;2023-09-18T13:40:10;24.10;98.20
306;DHT22;137;48.578;9.180;2023-09-18T13:42:38;23.90;98.20
306;DHT22;137;48.578;9.180;2023-09-18T13:45:06;23.70;98.20
306;DHT22;137;48.578;9.180;2023-09-18T13:47:33;23.60;98.20
306;DHT22;137;48.578;9.180;2023-09-18T13:50:00;23.60;98.20
306;DHT22;137;48.578;9.180;2023-09-18T13:52:29;23.60;98.20
306;DHT22;137;48.578;9.180;2023-09-18T13:54:56;23.60;98.20
306;DHT22;137;48.578;9.180;2023-09-18T13:57:22;23.40;98.20
306;DHT22;137;48.578;9.180;2023-09-18T13:59:51;23.30;98.20
306;DHT22;137;48.578;9.180;2023-09-18T14:02:19;23.20;98.20
306;DHT22;137;48.578;9.180;2023-09-18T14:04:46;23.10;98.20
306;DHT22;137;48.578;9.180;2023-09-18T14:07:12;23.10;98.20
306;DHT22;137;48.578;9.180;2023-09-18T14:09:39;23.10;98.20
306;DHT22;137;48.578;9.180;2023-09-18T14:12:06;23.10;98.20
306;DHT22;137;48.578;9.180;2023-09-18T14:14:34;23.10;98.20
306;DHT22;137;48.578;9.180;2023-09-18T14:17:03;23.00;98.20
306;DHT22;137;48.578;9.180;2023-09-18T14:19:30;22.90;98.20
306;DHT22;137;48.578;9.180;2023-09-18T14:21:57;22.90;98.20
306;DHT22;137;48.578;9.180;2023-09-18T14:24:27;22.90;98.20
306;DHT22;137;48.578;9.180;2023-09-18T14:26:54;22.90;98.20
306;DHT22;137;48.578;9.180;2023-09-18T14:29:21;23.00;98.20
306;DHT22;137;48.578;9.180;2023-09-18T14:31:47;22.90;98.20
306;DHT22;137;48.578;9.180;2023-09-18T14:34:16;22.90;98.20
306;DHT22;137;48.578;9.180;2023-09-18T14:36:42;22.90;98.20
306;DHT22;137;48.578;9.180;2023-09-18T14:39:10;22.80;98.20
306;DHT22;137;48.578;9.180;2023-09-18T14:41:38;22.90;98.20
306;DHT22;137;48.578;9.180;2023-09-18T14:44:06;22.90;98.20
306;DHT22;137;48.578;9.180;2023-09-18T14:46:34;23.00;98.20
306;DHT22;137;48.578;9.180;2023-09-18T14:49:03;23.00;98.20
306;DHT22;137;48.578;9.180;2023-09-18T14:51:31;23.10;98.20
306;DHT22;137;48.578;9.180;2023-09-18T14:53:59;23.10;98.20
306;DHT22;137;48.578;9.180;2023-09-18T14:56:26;23.10;98.20
306;DHT22;137;48.578;9.180;2023-09-18T14:58:53;23.10;98.20
306;DHT22;137;48.578;9.180;2023-09-18T15:01:21;23.10;98.20
306;DHT22;137;48.578;9.180;2023-09-18T15:03:48;22.90;98.20
306;DHT22;137;48.578;9.180;2023-09-18T15:06:15;22.80;98.20
306;DHT22;137;48.578;9.180;2023-09-18T15:08:43;22.70;98.20
306;DHT22;137;48.578;9.180;2023-09-18T15:11:10;22.60;98.20
306;DHT22;137;48.578;9.180;2023-09-18T15:13:38;22.60;98.20
306;DHT22;137;48.578;9.180;2023-09-18T15:16:05;22.40;98.20
306;DHT22;137;48.578;9.180;2023-09-18T15:18:32;22.40;98.20
306;DHT22;137;48.578;9.180;2023-09-18T15:20:58;22.40;98.20
306;DHT22;137;48.578;9.180;2023-09-18T15:23:25;22.40;98.20
306;DHT22;137;48.578;9.180;2023-09-18T15:25:54;22.50;98.20
306;DHT22;137;48.578;9.180;2023-09-18T15:28:21;22.50;98.20
306;DHT22;137;48.578;9.180;2023-09-18T15:30:50;22.60;98.20
306;DHT22;137;48.578;9.180;2023-09-18T15:33:17;22.60;98.20
306;DHT22;137;48.578;9.180;2023-09-18T15:35:44;22.60;98.20
306;DHT22;137;48.578;9.180;2023-09-18T15:38:11;22.40;98.20
306;DHT22;137;48.578;9.180;2023-09-18T15:40:38;22.40;98.20
306;DHT22;137;48.578;9.180;2023-09-18T15:43:06;22.40;98.20
306;DHT22;137;48.578;9.180;2023-09-18T15:45:33;22.30;98.20
306;DHT22;137;48.578;9.180;2023-09-18T15:48:00;22.20;98.20
306;DHT22;137;48.578;9.180;2023-09-18T15:50:27;22.00;98.20
306;DHT22;137;48.578;9.180;2023-09-18T15:52:54;21.90;98.20
306;DHT22;137;48.578;9.180;2023-09-18T15:57:46;21.80;98.20
306;DHT22;137;48.578;9.180;2023-09-18T16:00:15;21.80;98.20
306;DHT22;137;48.578;9.180;2023-09-18T16:02:43;21.80;98.20
306;DHT22;137;48.578;9.180;2023-09-18T16:05:10;21.70;98.20
306;DHT22;137;48.578;9.180;2023-09-18T16:07:38;21.70;98.20
306;DHT22;137;48.578;9.180;2023-09-18T16:10:06;21.70;98.20
306;DHT22;137;48.578;9.180;2023-09-18T16:12:33;21.80;98.20
306;DHT22;137;48.578;9.180;2023-09-18T16:15:00;21.90;98.20
306;DHT22;137;48.578;9.180;2023-09-18T16:17:29;21.90;98.20
306;DHT22;137;48.578;9.180;2023-09-18T16:19:56;21.90;98.20
306;DHT22;137;48.578;9.180;2023-09-18T16:22:24;21.80;98.20
306;DHT22;137;48.578;9.180;2023-09-18T16:24:51;21.80;98.20
306;DHT22;137;48.578;9.180;2023-09-18T16:27:18;21.90;98.20
306;DHT22;137;48.578;9.180;2023-09-18T16:29:44;21.80;98.20
306;DHT22;137;48.578;9.180;2023-09-18T16:32:11;21.70;98.20
306;DHT22;137;48.578;9.180;2023-09-18T16:34:39;21.70;98.20
306;DHT22;137;48.578;9.180;2023-09-18T16:37:08;21.70;98.20
306;DHT22;137;48.578;9.180;2023-09-18T16:39:35;21.70;98.20
306;DHT22;137;48.578;9.180;2023-09-18T16:42:01;21.70;98.20
306;DHT22;137;48.578;9.180;2023-09-18T16:44:28;21.70;98.20
306;DHT22;137;48.578;9.180;2023-09-18T16:46:55;21.60;98.20